Saturn, Texas
Current Conditions -  °F | °C
As of 11:15 AM on Thursday 27 Nov 2014 (Local Time) from KT20 Reporting Station
Clear Clear  
Wind Chill: 60°   Ceiling: Unl
Heat Index: 60°   Visibility: 10mi
Dew Point: 32°   Wind: 8mph
Humidity: 34%   Direction: 60°ENE
Pressure: 30.51"   Gusts: NA
Location:  29.6608°N, 97.4854°W
Report Text: KT20 271715Z AUTO 06007KT 10SM CLR 16/00 A3051 RMK AO2 T01570000
Loading
Personal Weather Stations






























Interactive Weather Map New forecast layout! Learn more

10-Day Weather Forecast

Advertisements
Track Severe Weather on mobile